createdAt,value
2023-05-16T00:02:26.888Z,66.55
2023-05-16T00:05:07.994Z,66.96
2023-05-16T00:07:47.610Z,66.59
2023-05-16T00:10:16.589Z,66.97
2023-05-16T00:30:41.953Z,68.35
2023-05-16T00:33:47.630Z,69.16
2023-05-16T00:36:16.114Z,69.04
2023-05-16T00:38:45.932Z,69.29
2023-05-16T00:41:43.846Z,69.52
2023-05-16T00:44:12.689Z,69.83
2023-05-16T00:46:45.676Z,69.45
2023-05-16T00:53:14.770Z,69.92
2023-05-16T00:59:37.996Z,70.34
2023-05-16T01:02:07.228Z,70.83
2023-05-16T01:10:05.528Z,70.91
2023-05-16T01:13:07.580Z,71.41
2023-05-16T01:16:14.643Z,71.67
2023-05-16T01:19:04.837Z,71.50
2023-05-16T01:22:16.413Z,71.26
2023-05-16T01:25:26.916Z,71.73
2023-05-16T01:27:57.770Z,72.14
2023-05-16T01:30:47.868Z,72.29
2023-05-16T01:33:16.189Z,73.31
2023-05-16T02:13:47.913Z,70.77
2023-05-16T02:50:25.749Z,63.52
2023-05-16T02:59:13.366Z,61.11
2023-05-16T03:25:00.850Z,61.83
2023-05-16T03:27:29.093Z,61.91
2023-05-16T03:35:24.786Z,62.14
2023-05-16T03:40:28.680Z,61.92
2023-05-16T04:43:09.978Z,77.00
2023-05-16T04:45:38.828Z,78.38
2023-05-16T04:48:27.507Z,79.34
2023-05-16T04:51:20.266Z,80.18
2023-05-16T04:53:51.689Z,80.03
2023-05-16T04:56:41.383Z,79.54
2023-05-16T04:59:10.506Z,79.30
2023-05-16T05:01:42.279Z,78.73
2023-05-16T05:04:11.670Z,78.69
2023-05-16T05:22:12.692Z,79.05
2023-05-16T05:24:40.401Z,79.03
2023-05-16T05:27:08.285Z,78.84
2023-05-16T05:29:35.762Z,79.62
2023-05-16T05:32:09.215Z,79.77
2023-05-16T05:34:42.608Z,79.99
2023-05-16T05:37:10.423Z,81.05
2023-05-16T05:39:38.653Z,81.30
2023-05-16T05:42:07.252Z,82.20
2023-05-16T05:44:35.793Z,82.77
2023-05-16T05:48:00.070Z,81.23
2023-05-16T05:50:27.970Z,84.30
2023-05-16T05:52:56.694Z,87.17
2023-05-16T05:55:24.870Z,88.40
2023-05-16T05:58:07.031Z,88.36
2023-05-16T06:00:52.269Z,90.36
2023-05-16T06:03:21.666Z,89.79
2023-05-16T06:05:49.213Z,91.25
2023-05-16T06:08:17.064Z,91.95
2023-05-16T06:10:45.898Z,91.78
2023-05-16T06:13:14.734Z,92.77
2023-05-16T06:15:43.406Z,92.38
2023-05-16T06:18:14.075Z,88.34
2023-05-16T06:20:42.707Z,87.56
2023-05-16T06:23:10.696Z,87.16
2023-05-16T06:28:44.429Z,88.18
2023-05-16T06:31:15.450Z,90.37
2023-05-16T06:37:17.554Z,94.31
2023-05-16T06:40:54.786Z,96.38
2023-05-16T06:43:45.014Z,97.00
2023-05-16T06:46:16.665Z,96.17
2023-05-16T06:48:45.029Z,95.75
2023-05-16T06:51:34.584Z,94.38
2023-05-16T06:54:15.111Z,94.11
2023-05-16T06:59:56.294Z,92.63
2023-05-16T07:06:09.131Z,92.07
2023-05-16T07:08:37.139Z,92.18
2023-05-16T07:11:05.681Z,92.30
2023-05-16T07:14:03.666Z,91.46
2023-05-16T07:16:34.118Z,87.41
2023-05-16T07:22:20.315Z,87.72
2023-05-16T07:28:45.477Z,84.78
2023-05-16T07:33:55.845Z,87.69
2023-05-16T07:40:44.713Z,86.38
2023-05-16T07:43:24.695Z,87.06
2023-05-16T07:46:18.208Z,89.19
2023-05-16T07:48:45.711Z,89.92
2023-05-16T07:51:16.461Z,90.27
2023-05-16T07:53:43.998Z,91.02
2023-05-16T07:56:11.980Z,92.14
2023-05-16T07:59:11.085Z,92.17
2023-05-16T08:01:54.753Z,91.00
2023-05-16T08:04:44.531Z,90.03
2023-05-16T08:24:29.814Z,86.81
2023-05-16T08:27:20.389Z,86.74
2023-05-16T08:30:11.358Z,85.03
2023-05-16T08:32:39.897Z,84.66
2023-05-16T08:38:59.802Z,83.38
2023-05-16T08:41:47.297Z,84.30
2023-05-16T08:51:39.320Z,82.16
2023-05-16T08:57:49.099Z,83.19
2023-05-16T09:06:29.882Z,84.36
2023-05-16T09:16:05.834Z,85.90
2023-05-16T09:18:48.397Z,86.79
2023-05-16T09:21:52.447Z,88.32
2023-05-16T09:24:20.789Z,89.51
2023-05-16T09:26:51.893Z,90.68
2023-05-16T09:29:19.743Z,91.12
2023-05-16T09:31:47.736Z,91.06
2023-05-16T09:37:27.584Z,90.30
2023-05-16T09:39:56.580Z,91.92
2023-05-16T09:49:15.447Z,95.61
2023-05-16T09:51:43.079Z,95.59
2023-05-16T09:54:10.684Z,95.82
2023-05-16T09:56:50.764Z,92.01
2023-05-16T10:03:04.735Z,88.64
2023-05-16T10:05:33.252Z,88.17
2023-05-16T10:08:00.630Z,85.87
2023-05-16T10:10:28.618Z,84.47
2023-05-16T10:12:59.340Z,82.54
2023-05-16T10:15:30.596Z,81.73
2023-05-16T10:18:11.820Z,81.23
2023-05-16T10:21:21.929Z,82.78
2023-05-16T10:23:50.906Z,78.86
2023-05-16T10:42:29.009Z,73.39
2023-05-16T10:45:21.111Z,71.27
2023-05-16T10:53:43.356Z,72.12
2023-05-16T10:56:15.029Z,73.83
2023-05-16T10:58:45.304Z,75.21
2023-05-16T11:01:30.132Z,76.49
2023-05-16T11:04:11.997Z,75.58
2023-05-16T11:06:41.966Z,75.46
2023-05-16T11:09:11.652Z,75.96
2023-05-16T11:11:53.926Z,75.93
2023-05-16T11:14:22.836Z,75.35
2023-05-16T11:17:13.769Z,75.55
2023-05-16T11:19:59.993Z,74.38
2023-05-16T11:22:50.641Z,73.32
2023-05-16T11:25:18.667Z,72.64
2023-05-16T11:27:47.436Z,71.46
2023-05-16T11:30:22.117Z,72.04
2023-05-16T11:32:50.645Z,72.23
2023-05-16T11:35:19.376Z,73.19
2023-05-16T11:37:47.939Z,73.65
2023-05-16T11:40:17.163Z,73.48
2023-05-16T11:42:45.958Z,72.71
2023-05-16T11:45:16.512Z,72.26
2023-05-16T11:47:45.244Z,72.32
2023-05-16T11:50:18.461Z,72.37
2023-05-16T12:30:32.653Z,64.03
2023-05-16T12:45:06.890Z,57.95
2023-05-16T12:54:05.789Z,54.48
2023-05-16T12:56:37.805Z,53.03
2023-05-16T12:59:16.209Z,51.81
2023-05-16T13:01:44.580Z,50.60
2023-05-16T13:04:17.736Z,49.82
2023-05-16T13:09:21.697Z,47.28
2023-05-16T13:11:49.657Z,48.53
2023-05-16T13:14:20.724Z,50.31
2023-05-16T13:16:48.566Z,49.12
2023-05-16T13:19:16.629Z,47.93
2023-05-16T13:21:44.586Z,47.99
2023-05-16T13:24:12.422Z,46.97
2023-05-16T13:26:47.891Z,45.26
2023-05-16T13:29:15.862Z,45.97
2023-05-16T13:31:44.866Z,46.16
2023-05-16T13:34:13.037Z,45.46
2023-05-16T13:36:53.959Z,46.76
2023-05-16T13:39:32.607Z,46.37
2023-05-16T13:42:00.632Z,46.83
2023-05-16T13:44:28.681Z,46.89
2023-05-16T13:46:56.780Z,48.01
2023-05-16T13:49:27.578Z,48.08
2023-05-16T13:51:55.774Z,48.31
2023-05-16T13:54:24.061Z,47.84
2023-05-16T13:56:52.015Z,48.28
2023-05-16T13:59:32.025Z,48.58
2023-05-16T14:02:06.072Z,49.36
2023-05-16T14:04:33.788Z,49.78
2023-05-16T14:07:01.748Z,48.61
2023-05-16T14:09:29.660Z,47.41
2023-05-16T14:11:57.562Z,47.63
2023-05-16T14:14:25.140Z,46.62
2023-05-16T14:16:53.323Z,46.25
2023-05-16T14:19:21.241Z,45.35
2023-05-16T14:21:49.315Z,46.28
2023-05-16T14:24:17.156Z,46.61
2023-05-16T14:26:44.983Z,47.41
2023-05-16T14:29:13.426Z,45.92
2023-05-16T14:31:41.759Z,45.56
2023-05-16T14:34:09.779Z,46.28
2023-05-16T14:36:37.938Z,45.99
2023-05-16T14:39:06.269Z,45.40
2023-05-16T14:41:34.495Z,45.42
2023-05-16T14:44:01.627Z,45.96
2023-05-16T14:46:34.896Z,45.65
2023-05-16T14:49:01.971Z,46.39
2023-05-16T14:51:29.652Z,46.21
2023-05-16T14:53:57.327Z,47.15
2023-05-16T14:56:26.971Z,47.24
2023-05-16T14:58:55.126Z,46.50
2023-05-16T15:01:22.996Z,46.43
2023-05-16T15:03:55.733Z,46.84
2023-05-16T15:06:24.780Z,45.71
2023-05-16T15:08:52.825Z,46.30
2023-05-16T15:11:21.662Z,46.79
2023-05-16T15:13:49.667Z,45.72
2023-05-16T15:16:17.382Z,45.77
2023-05-16T15:18:45.422Z,45.30
2023-05-16T15:21:13.128Z,45.71
2023-05-16T15:23:41.708Z,45.62
2023-05-16T15:26:09.887Z,46.48
2023-05-16T15:28:37.589Z,45.46
2023-05-16T15:31:05.894Z,44.81
2023-05-16T15:33:33.540Z,44.21
2023-05-16T15:36:01.808Z,42.92
2023-05-16T15:38:29.364Z,42.76
2023-05-16T15:41:13.591Z,42.65
2023-05-16T15:43:45.095Z,43.45
2023-05-16T15:46:13.249Z,44.06
2023-05-16T15:48:42.904Z,44.70
2023-05-16T15:51:10.815Z,44.63
2023-05-16T15:53:38.325Z,45.12
2023-05-16T15:56:08.060Z,44.99
2023-05-16T15:58:36.202Z,45.49
2023-05-16T16:01:05.037Z,46.43
2023-05-16T16:03:33.169Z,46.47
2023-05-16T16:06:01.112Z,46.21
2023-05-16T16:08:28.701Z,46.90
2023-05-16T16:10:56.719Z,47.45
2023-05-16T16:13:24.408Z,47.71
2023-05-16T16:15:52.211Z,47.73
2023-05-16T16:18:19.815Z,48.44
2023-05-16T16:20:47.693Z,49.24
2023-05-16T16:23:15.284Z,49.49
2023-05-16T16:25:43.409Z,50.23
2023-05-16T16:28:10.966Z,50.29
2023-05-16T16:30:38.539Z,50.37
2023-05-16T16:33:06.589Z,50.89
2023-05-16T16:35:34.414Z,51.24
2023-05-16T16:38:06.966Z,51.56
2023-05-16T16:40:35.658Z,52.17
2023-05-16T16:43:06.016Z,54.44
2023-05-16T16:45:34.150Z,55.73
2023-05-16T16:48:01.743Z,56.61
2023-05-16T16:50:30.361Z,57.03
2023-05-16T16:53:01.323Z,57.51
2023-05-16T16:55:30.005Z,57.24
2023-05-16T16:57:58.341Z,58.29
2023-05-16T17:00:26.268Z,59.17
2023-05-16T17:02:54.283Z,60.08
2023-05-16T17:05:22.108Z,61.07
2023-05-16T17:07:49.762Z,61.63
2023-05-16T17:10:17.883Z,62.00
2023-05-16T17:12:49.293Z,62.48
2023-05-16T17:15:19.854Z,62.59
2023-05-16T17:17:49.668Z,62.57
2023-05-16T17:20:17.161Z,60.92
2023-05-16T17:22:46.178Z,60.81
2023-05-16T17:25:14.192Z,62.42
2023-05-16T17:27:41.774Z,62.25
2023-05-16T17:30:11.367Z,62.43
2023-05-16T17:32:39.808Z,62.83
2023-05-16T17:35:08.457Z,63.56
2023-05-16T17:37:36.406Z,63.09
2023-05-16T17:40:06.154Z,63.45
2023-05-16T17:42:34.105Z,64.36
2023-05-16T17:45:04.405Z,65.36
2023-05-16T17:47:31.989Z,66.24
2023-05-16T17:49:59.671Z,66.73
2023-05-16T17:52:27.406Z,68.06
2023-05-16T17:54:55.356Z,69.36
2023-05-16T17:57:23.422Z,70.35
2023-05-16T17:59:50.992Z,71.72
2023-05-16T18:02:18.863Z,73.39
2023-05-16T18:04:48.188Z,76.42
2023-05-16T18:07:15.997Z,77.23
2023-05-16T18:09:44.114Z,77.61
2023-05-16T18:12:11.666Z,78.26
2023-05-16T18:14:39.318Z,78.98
2023-05-16T18:17:08.529Z,80.37
2023-05-16T18:19:36.149Z,80.57
2023-05-16T18:22:07.115Z,81.20
2023-05-16T18:24:34.976Z,81.45
2023-05-16T18:27:03.309Z,79.81
2023-05-16T18:29:31.069Z,80.04
2023-05-16T18:32:00.203Z,80.96
2023-05-16T18:34:27.776Z,81.26
2023-05-16T18:36:55.368Z,81.34
2023-05-16T18:39:23.160Z,80.85
2023-05-16T18:41:50.327Z,79.79
2023-05-16T18:44:18.044Z,78.58
2023-05-16T18:46:46.642Z,77.67
2023-05-16T18:49:14.522Z,78.56
2023-05-16T18:51:41.732Z,78.81
2023-05-16T18:54:09.382Z,79.21
2023-05-16T18:56:37.188Z,79.31
2023-05-16T18:59:05.279Z,80.13
2023-05-16T19:01:32.991Z,80.66
2023-05-16T19:04:00.759Z,81.07
2023-05-16T19:06:28.731Z,82.42
2023-05-16T19:08:56.318Z,83.47
2023-05-16T19:11:23.821Z,83.14
2023-05-16T19:13:52.106Z,83.44
2023-05-16T19:16:20.740Z,83.79
2023-05-16T19:18:48.780Z,84.07
2023-05-16T19:21:17.117Z,83.60
2023-05-16T19:23:46.114Z,83.41
2023-05-16T19:26:13.833Z,84.22
2023-05-16T19:28:42.690Z,85.24
2023-05-16T19:31:11.236Z,86.10
2023-05-16T19:33:39.118Z,87.00
2023-05-16T19:36:08.612Z,85.21
2023-05-16T19:38:36.198Z,85.25
2023-05-16T19:41:04.840Z,85.30
2023-05-16T19:43:32.773Z,85.31
2023-05-16T19:46:04.462Z,85.24
2023-05-16T19:48:32.361Z,85.17
2023-05-16T19:51:00.391Z,85.36
2023-05-16T19:53:28.276Z,85.35
2023-05-16T19:55:55.868Z,85.20
2023-05-16T19:58:24.149Z,85.83
2023-05-16T20:00:51.645Z,85.28
2023-05-16T20:03:19.840Z,85.67
2023-05-16T20:05:47.435Z,86.72
2023-05-16T20:08:15.858Z,86.29
2023-05-16T20:10:44.457Z,87.36
2023-05-16T20:13:12.480Z,88.72
2023-05-16T20:15:40.600Z,90.44
2023-05-16T20:18:08.637Z,91.80
2023-05-16T20:20:36.783Z,93.11
2023-05-16T20:23:05.269Z,93.87
2023-05-16T20:25:32.998Z,95.28
2023-05-16T20:28:00.656Z,97.04
2023-05-16T20:30:28.385Z,98.40
2023-05-16T20:32:56.496Z,100.00
2023-05-16T20:35:24.979Z,100.00
2023-05-16T20:37:53.342Z,100.00
2023-05-16T20:40:23.050Z,100.00
2023-05-16T20:42:50.679Z,100.00
2023-05-16T20:45:18.499Z,100.00
2023-05-16T20:47:47.866Z,100.00
2023-05-16T20:50:15.550Z,100.00
2023-05-16T20:52:43.465Z,100.00
2023-05-16T20:55:11.809Z,100.00
2023-05-16T20:57:41.711Z,100.00
2023-05-16T21:00:12.778Z,100.00
2023-05-16T21:02:40.366Z,100.00
2023-05-16T21:05:24.236Z,100.00
2023-05-16T21:07:53.653Z,100.00
2023-05-16T21:10:22.038Z,100.00
2023-05-16T21:12:50.299Z,100.00
2023-05-16T21:15:17.872Z,100.00
2023-05-16T21:17:45.912Z,100.00
2023-05-16T21:20:14.216Z,100.00
2023-05-16T21:22:42.666Z,100.00
2023-05-16T21:25:10.865Z,100.00
2023-05-16T21:27:38.463Z,100.00
2023-05-16T21:30:07.910Z,100.00
2023-05-16T21:32:35.865Z,100.00
2023-05-16T21:35:04.851Z,100.00
2023-05-16T21:37:34.936Z,100.00
2023-05-16T21:40:02.551Z,100.00
2023-05-16T21:42:30.504Z,100.00
2023-05-16T21:44:58.423Z,100.00
2023-05-16T21:47:26.418Z,100.00
2023-05-16T21:49:54.292Z,100.00
2023-05-16T21:52:21.909Z,100.00
2023-05-16T21:54:51.864Z,100.00
2023-05-16T21:57:19.861Z,100.00
2023-05-16T21:59:50.566Z,100.00
2023-05-16T22:02:22.866Z,100.00
2023-05-16T22:04:50.514Z,100.00
2023-05-16T22:07:18.745Z,100.00
2023-05-16T22:09:50.724Z,100.00
2023-05-16T22:12:18.862Z,100.00
2023-05-16T22:14:46.524Z,100.00
2023-05-16T22:17:14.550Z,100.00
2023-05-16T22:19:45.652Z,100.00
2023-05-16T22:22:13.631Z,100.00
2023-05-16T22:24:41.511Z,100.00
2023-05-16T22:27:09.388Z,100.00
2023-05-16T22:29:40.316Z,100.00
2023-05-16T22:32:08.969Z,100.00
2023-05-16T22:34:39.496Z,100.00
2023-05-16T22:37:10.483Z,100.00
2023-05-16T22:39:38.057Z,100.00
2023-05-16T22:42:06.626Z,100.00
2023-05-16T22:44:34.624Z,100.00
2023-05-16T22:47:02.050Z,100.00
2023-05-16T22:49:29.632Z,100.00
2023-05-16T22:51:57.657Z,100.00
2023-05-16T22:54:27.818Z,100.00
2023-05-16T22:56:55.610Z,100.00
2023-05-16T22:59:23.585Z,100.00
2023-05-16T23:01:51.491Z,100.00
2023-05-16T23:04:19.557Z,100.00
2023-05-16T23:06:47.515Z,100.00
2023-05-16T23:09:15.376Z,100.00
2023-05-16T23:11:43.361Z,100.00
2023-05-16T23:14:13.588Z,100.00
2023-05-16T23:16:41.595Z,100.00
2023-05-16T23:19:09.805Z,100.00
2023-05-16T23:21:37.633Z,100.00
2023-05-16T23:24:06.341Z,100.00
2023-05-16T23:26:33.922Z,100.00
2023-05-16T23:29:01.950Z,100.00
2023-05-16T23:31:29.898Z,100.00
2023-05-16T23:33:57.894Z,100.00
2023-05-16T23:36:25.550Z,100.00
2023-05-16T23:38:53.634Z,100.00
2023-05-16T23:41:21.699Z,100.00
2023-05-16T23:43:49.721Z,100.00
2023-05-16T23:46:17.951Z,100.00
2023-05-16T23:48:46.008Z,100.00
2023-05-16T23:51:14.048Z,100.00
2023-05-16T23:53:42.098Z,100.00
2023-05-16T23:56:09.749Z,100.00
2023-05-16T23:58:37.596Z,100.00
